createdAt,value
2017-07-24T00:01:35.141Z,1.90
2017-07-24T00:04:02.613Z,2.40
2017-07-24T00:06:30.104Z,2.37
2017-07-24T00:08:58.353Z,3.30
2017-07-24T00:11:25.821Z,3.60
2017-07-24T00:13:53.314Z,2.50
2017-07-24T00:16:20.796Z,2.43
2017-07-24T00:18:48.282Z,2.83
2017-07-24T00:21:15.769Z,3.20
2017-07-24T00:23:44.004Z,3.60
2017-07-24T00:26:11.474Z,2.60
2017-07-24T00:28:38.980Z,3.00
2017-07-24T00:31:06.465Z,3.03
2017-07-24T00:33:34.225Z,2.60
2017-07-24T00:36:01.717Z,3.13
2017-07-24T00:38:29.185Z,2.60
2017-07-24T00:40:56.657Z,3.00
2017-07-24T00:43:24.954Z,3.23
2017-07-24T00:45:52.738Z,2.80
2017-07-24T00:48:20.953Z,3.47
2017-07-24T00:50:48.444Z,3.70
2017-07-24T00:53:15.918Z,2.50
2017-07-24T00:55:43.389Z,2.27
2017-07-24T00:58:10.897Z,2.63
2017-07-24T01:00:39.133Z,3.27
2017-07-24T01:03:06.612Z,2.57
2017-07-24T01:05:34.104Z,2.47
2017-07-24T01:08:01.590Z,2.87
2017-07-24T01:10:29.069Z,3.57
2017-07-24T01:12:56.564Z,3.73
2017-07-24T01:15:25.106Z,2.57
2017-07-24T01:17:53.385Z,2.80
2017-07-24T01:20:20.889Z,3.37
2017-07-24T01:22:49.121Z,2.70
2017-07-24T01:25:16.597Z,2.97
2017-07-24T01:27:44.477Z,3.50
2017-07-24T01:30:13.207Z,3.30
2017-07-24T01:32:40.693Z,3.13
2017-07-24T01:35:08.185Z,3.27
2017-07-24T01:37:36.429Z,3.40
2017-07-24T01:40:03.898Z,3.10
2017-07-24T01:42:31.399Z,2.73
2017-07-24T01:44:58.872Z,2.90
2017-07-24T01:47:26.341Z,2.60
2017-07-24T01:49:53.831Z,2.87
2017-07-24T01:52:22.073Z,3.70
2017-07-24T01:54:49.544Z,2.43
2017-07-24T01:57:17.039Z,3.77
2017-07-24T01:59:44.510Z,3.40
2017-07-24T02:02:11.981Z,2.90
2017-07-24T02:04:39.472Z,2.90
2017-07-24T02:07:06.945Z,3.20
2017-07-24T02:09:34.417Z,2.80
2017-07-24T02:12:02.674Z,2.97
2017-07-24T02:14:30.144Z,2.60
2017-07-24T02:16:58.386Z,3.30
2017-07-24T02:19:25.877Z,3.00
2017-07-24T02:21:54.117Z,2.87
2017-07-24T02:24:21.585Z,2.77
2017-07-24T02:26:49.080Z,3.23
2017-07-24T02:29:17.614Z,2.60
2017-07-24T02:31:45.149Z,3.10
2017-07-24T02:34:13.198Z,3.67
2017-07-24T02:36:40.669Z,3.00
2017-07-24T02:39:08.139Z,3.90
2017-07-24T02:41:35.629Z,2.83
2017-07-24T02:44:03.092Z,3.43
2017-07-24T02:46:30.568Z,3.10
2017-07-24T02:48:58.832Z,2.90
2017-07-24T02:51:27.074Z,3.30
2017-07-24T02:53:54.544Z,2.27
2017-07-24T02:56:22.037Z,2.67
2017-07-24T02:58:50.299Z,2.70
2017-07-24T03:01:18.538Z,2.50
2017-07-24T03:03:46.034Z,2.50
2017-07-24T03:06:13.508Z,3.00
2017-07-24T03:08:40.976Z,3.13
2017-07-24T03:11:08.505Z,3.00
2017-07-24T03:13:36.741Z,2.70
2017-07-24T03:16:04.213Z,2.93
2017-07-24T03:18:31.701Z,3.60
2017-07-24T03:20:59.936Z,3.83
2017-07-24T03:23:27.429Z,3.70
2017-07-24T03:25:55.689Z,3.20
2017-07-24T03:28:23.161Z,3.97
2017-07-24T03:30:51.397Z,3.10
2017-07-24T03:33:19.553Z,2.60
2017-07-24T03:35:47.021Z,2.90
2017-07-24T03:38:14.492Z,3.50
2017-07-24T03:40:41.986Z,3.17
2017-07-24T03:43:10.224Z,2.93
2017-07-24T03:45:37.692Z,2.73
2017-07-24T03:48:05.608Z,3.00
2017-07-24T03:50:33.080Z,3.20
2017-07-24T03:53:00.548Z,3.60
2017-07-24T03:55:28.040Z,3.13
2017-07-24T03:57:56.291Z,3.30
2017-07-24T04:00:23.766Z,2.63
2017-07-24T04:02:51.263Z,2.80
2017-07-24T04:05:18.733Z,2.93
2017-07-24T04:07:46.209Z,3.60
2017-07-24T04:10:13.701Z,2.83
2017-07-24T04:12:41.169Z,3.30
2017-07-24T04:15:09.756Z,3.37
2017-07-24T04:17:38.113Z,2.67
2017-07-24T04:20:05.593Z,3.40
2017-07-24T04:22:33.833Z,3.00
2017-07-24T04:25:01.320Z,3.33
2017-07-24T04:27:29.984Z,3.97
2017-07-24T04:29:57.453Z,3.03
2017-07-24T04:32:24.958Z,2.83
2017-07-24T04:34:52.496Z,2.60
2017-07-24T04:37:19.965Z,2.67
2017-07-24T04:39:47.461Z,2.33
2017-07-24T04:42:15.361Z,2.00
2017-07-24T04:44:43.597Z,1.77
2017-07-24T04:47:11.120Z,1.87
2017-07-24T04:49:38.593Z,1.60
2017-07-24T04:52:06.101Z,1.70
2017-07-24T04:54:34.361Z,1.77
2017-07-24T04:57:01.837Z,2.50
2017-07-24T04:59:30.081Z,2.13
2017-07-24T05:01:57.585Z,2.43
2017-07-24T05:04:25.053Z,2.30
2017-07-24T05:06:52.528Z,1.93
2017-07-24T05:09:20.121Z,2.40
2017-07-24T05:11:47.853Z,2.60
2017-07-24T05:14:15.361Z,2.87
2017-07-24T05:16:43.617Z,1.87
2017-07-24T05:19:11.089Z,1.63
2017-07-24T05:21:38.653Z,1.80
2017-07-24T05:24:06.915Z,2.10
2017-07-24T05:26:34.390Z,1.80
2017-07-24T05:29:02.625Z,1.93
2017-07-24T05:31:30.113Z,1.60
2017-07-24T05:33:57.582Z,1.50
2017-07-24T05:36:25.813Z,1.63
2017-07-24T05:38:53.560Z,2.17
2017-07-24T05:41:21.030Z,1.80
2017-07-24T05:43:48.569Z,1.80
2017-07-24T05:46:16.164Z,1.30
2017-07-24T05:48:43.653Z,1.90
2017-07-24T05:51:12.477Z,1.50
2017-07-24T05:53:40.009Z,1.80
2017-07-24T05:56:07.482Z,1.33
2017-07-24T05:58:35.009Z,1.83
2017-07-24T06:01:03.270Z,1.83
2017-07-24T06:03:30.737Z,1.53
2017-07-24T06:05:58.973Z,1.40
2017-07-24T06:08:26.466Z,1.90
2017-07-24T06:10:53.938Z,2.07
2017-07-24T06:13:22.175Z,1.90
2017-07-24T06:15:49.664Z,2.50
2017-07-24T06:18:17.905Z,1.83
2017-07-24T06:20:45.377Z,1.90
2017-07-24T06:23:12.869Z,1.73
2017-07-24T06:25:40.336Z,2.33
2017-07-24T06:28:07.816Z,1.63
2017-07-24T06:30:35.332Z,2.20
2017-07-24T06:33:03.596Z,1.77
2017-07-24T06:35:31.863Z,1.83
2017-07-24T06:37:59.793Z,2.23
2017-07-24T06:40:27.319Z,1.90
2017-07-24T06:42:54.830Z,2.30
2017-07-24T06:45:22.677Z,2.20
2017-07-24T06:47:51.133Z,2.27
2017-07-24T06:50:18.912Z,2.40
2017-07-24T06:52:46.481Z,2.27
2017-07-24T06:55:14.240Z,1.80
2017-07-24T06:57:41.737Z,1.80
2017-07-24T07:00:09.261Z,2.03
2017-07-24T07:02:36.764Z,2.00
2017-07-24T07:05:05.033Z,2.33
2017-07-24T07:07:32.553Z,3.00
2017-07-24T07:10:00.053Z,2.30
2017-07-24T07:12:28.321Z,1.80
2017-07-24T07:14:55.841Z,1.90
2017-07-24T07:17:23.337Z,2.57
2017-07-24T07:19:50.833Z,2.97
2017-07-24T07:22:18.356Z,2.70
2017-07-24T07:24:45.852Z,3.23
2017-07-24T07:27:13.349Z,3.23
2017-07-24T07:29:41.000Z,3.07
2017-07-24T07:32:08.498Z,2.80
2017-07-24T07:34:36.761Z,3.10
2017-07-24T07:37:04.309Z,3.97
2017-07-24T07:39:31.829Z,3.77
2017-07-24T07:41:59.329Z,3.43
2017-07-24T07:44:26.849Z,3.40
2017-07-24T07:46:54.344Z,2.97
2017-07-24T07:49:21.841Z,2.30
2017-07-24T07:51:49.365Z,2.50
2017-07-24T07:54:16.862Z,2.30
2017-07-24T07:56:44.365Z,1.77
2017-07-24T07:59:11.889Z,2.67
2017-07-24T08:01:39.405Z,2.20
2017-07-24T08:04:07.669Z,2.43
2017-07-24T08:06:35.196Z,2.20
2017-07-24T08:09:02.964Z,2.53
2017-07-24T08:11:30.469Z,2.13
2017-07-24T08:13:58.761Z,2.63
2017-07-24T08:16:26.263Z,2.10
2017-07-24T08:18:54.172Z,2.57
2017-07-24T08:21:22.465Z,2.57
2017-07-24T08:23:50.353Z,3.20
2017-07-24T08:26:18.201Z,2.20
2017-07-24T08:28:45.742Z,2.30
2017-07-24T08:31:13.553Z,2.63
2017-07-24T08:33:41.072Z,2.60
2017-07-24T08:36:08.873Z,2.50
2017-07-24T08:38:36.368Z,2.87
2017-07-24T08:41:03.865Z,2.97
2017-07-24T08:43:31.390Z,3.20
2017-07-24T08:45:59.654Z,3.27
2017-07-24T08:48:27.161Z,3.33
2017-07-24T08:50:54.685Z,3.07
2017-07-24T08:53:22.960Z,2.70
2017-07-24T08:55:51.221Z,2.73
2017-07-24T08:58:19.137Z,3.07
2017-07-24T09:00:46.636Z,3.33
2017-07-24T09:03:14.137Z,3.10
2017-07-24T09:05:41.938Z,1.50
2017-07-24T09:08:09.437Z,1.20
2017-07-24T09:10:36.932Z,1.03
2017-07-24T09:13:04.453Z,0.70
2017-07-24T09:15:32.384Z,0.60
2017-07-24T09:17:59.889Z,0.80
2017-07-24T09:20:28.188Z,0.73
2017-07-24T09:22:55.686Z,0.67
2017-07-24T09:25:23.185Z,0.70
2017-07-24T09:27:51.025Z,0.70
2017-07-24T09:30:18.527Z,0.50
2017-07-24T09:32:46.026Z,0.50
2017-07-24T09:35:13.560Z,0.70
2017-07-24T09:37:41.056Z,0.50
2017-07-24T09:40:09.341Z,0.50
2017-07-24T09:42:36.870Z,0.70
2017-07-24T09:45:04.459Z,0.60
2017-07-24T09:47:31.953Z,0.60
2017-07-24T09:49:59.477Z,0.57
2017-07-24T09:52:27.741Z,0.50
2017-07-24T09:54:55.241Z,0.50
2017-07-24T09:57:22.764Z,0.60
2017-07-24T09:59:50.265Z,0.60
2017-07-24T10:02:17.784Z,0.60
2017-07-24T10:04:46.076Z,0.60
2017-07-24T10:07:14.340Z,0.60
2017-07-24T10:09:42.606Z,0.70
2017-07-24T10:12:11.045Z,0.70
2017-07-24T10:14:38.544Z,0.60
2017-07-24T10:17:06.045Z,0.50
2017-07-24T10:19:33.569Z,0.60
2017-07-24T10:22:01.846Z,0.50
2017-07-24T10:24:30.112Z,0.57
2017-07-24T10:26:57.633Z,0.60
2017-07-24T10:29:25.393Z,0.53
2017-07-24T10:31:52.889Z,1.00
2017-07-24T10:34:20.412Z,0.67
2017-07-24T10:36:48.173Z,0.67
2017-07-24T10:39:15.729Z,0.80
2017-07-24T10:41:43.262Z,0.60
2017-07-24T10:44:10.769Z,0.50
2017-07-24T10:46:38.267Z,0.53
2017-07-24T10:49:06.561Z,0.77
2017-07-24T10:51:34.056Z,0.70
2017-07-24T10:54:01.558Z,0.70
2017-07-24T10:56:29.089Z,0.60
2017-07-24T10:58:56.601Z,0.70
2017-07-24T11:01:24.379Z,0.80
2017-07-24T11:03:51.901Z,0.80
2017-07-24T11:06:20.119Z,0.60
2017-07-24T11:08:47.616Z,0.73
2017-07-24T11:11:15.905Z,0.83
2017-07-24T11:13:44.169Z,0.70
2017-07-24T11:16:12.433Z,0.60
2017-07-24T11:18:39.961Z,0.80
2017-07-24T11:21:07.457Z,0.80
2017-07-24T11:23:35.721Z,0.70
2017-07-24T11:26:03.244Z,0.80
2017-07-24T11:28:30.741Z,0.83
2017-07-24T11:30:58.242Z,0.70
2017-07-24T11:33:25.765Z,0.70
2017-07-24T11:35:54.040Z,0.90
2017-07-24T11:38:22.304Z,0.80
2017-07-24T11:40:49.829Z,0.90
2017-07-24T11:43:17.340Z,0.60
2017-07-24T11:45:45.600Z,0.80
2017-07-24T11:48:13.126Z,1.23
2017-07-24T11:50:40.625Z,0.83
2017-07-24T11:53:08.895Z,0.80
2017-07-24T11:55:36.417Z,0.93
2017-07-24T11:58:03.913Z,0.60
2017-07-24T12:00:32.180Z,0.63
2017-07-24T12:03:01.209Z,0.90
2017-07-24T12:05:29.198Z,0.90
2017-07-24T12:07:56.968Z,0.80
2017-07-24T12:10:24.489Z,0.90
2017-07-24T12:12:52.753Z,0.70
2017-07-24T12:15:21.016Z,0.90
2017-07-24T12:17:48.845Z,0.80
2017-07-24T12:20:16.345Z,0.70
2017-07-24T12:22:43.845Z,0.90
2017-07-24T12:25:11.387Z,0.70
2017-07-24T12:27:38.885Z,1.13
2017-07-24T12:30:06.389Z,1.20
2017-07-24T12:32:34.973Z,0.97
2017-07-24T12:35:03.241Z,1.50
2017-07-24T12:37:31.505Z,1.10
2017-07-24T12:39:59.037Z,1.77
2017-07-24T12:42:26.532Z,1.70
2017-07-24T12:44:54.794Z,1.53
2017-07-24T12:47:22.317Z,1.60
2017-07-24T12:49:49.817Z,2.07
2017-07-24T12:52:17.463Z,1.90
2017-07-24T12:54:45.001Z,1.90
2017-07-24T12:57:12.497Z,1.80
2017-07-24T13:02:06.221Z,2.37
2017-07-24T13:04:33.725Z,13.83
2017-07-24T13:07:01.228Z,1.20
2017-07-24T13:09:29.017Z,2.00
2017-07-24T13:11:56.673Z,2.10
2017-07-24T13:14:24.177Z,2.80
2017-07-24T13:16:51.701Z,3.07
2017-07-24T13:19:19.246Z,1.67
2017-07-24T13:21:46.745Z,3.50
2017-07-24T13:24:14.275Z,2.60
2017-07-24T13:26:41.782Z,2.07
2017-07-24T13:29:10.209Z,2.40
2017-07-24T13:31:37.733Z,2.80
2017-07-24T13:34:05.232Z,2.87
2017-07-24T13:36:32.792Z,2.10
2017-07-24T13:39:00.318Z,1.93
2017-07-24T13:41:27.817Z,2.23
2017-07-24T13:43:55.316Z,1.50
2017-07-24T13:46:23.605Z,2.00
2017-07-24T13:48:51.106Z,1.70
2017-07-24T13:51:18.605Z,2.47
2017-07-24T13:53:47.046Z,1.80
2017-07-24T13:56:14.561Z,2.10
2017-07-24T13:58:42.061Z,2.43
2017-07-24T14:01:09.585Z,1.97
2017-07-24T14:03:37.081Z,2.47
2017-07-24T14:06:04.556Z,2.10
2017-07-24T14:08:32.050Z,2.00
2017-07-24T14:10:59.521Z,1.70
2017-07-24T14:13:26.992Z,2.00
2017-07-24T14:15:54.489Z,1.90
2017-07-24T14:18:21.958Z,2.00
2017-07-24T14:20:50.199Z,2.20
2017-07-24T14:23:17.694Z,2.50
2017-07-24T14:25:45.934Z,1.90
2017-07-24T14:28:13.401Z,2.10
2017-07-24T14:30:40.893Z,1.90
2017-07-24T14:33:08.360Z,2.10
2017-07-24T14:35:36.137Z,1.80
2017-07-24T14:38:03.628Z,2.20
2017-07-24T14:40:31.097Z,2.00
2017-07-24T14:42:58.565Z,1.90
2017-07-24T14:45:26.833Z,1.87
2017-07-24T14:47:54.305Z,1.97
2017-07-24T14:50:22.546Z,1.87
2017-07-24T14:52:50.042Z,2.30
2017-07-24T14:55:18.277Z,2.13
2017-07-24T14:57:45.804Z,1.90
2017-07-24T15:00:13.293Z,2.30
2017-07-24T15:02:40.763Z,2.20
2017-07-24T15:05:08.330Z,2.27
2017-07-24T15:07:35.822Z,1.90
2017-07-24T15:10:03.293Z,2.20
2017-07-24T15:12:30.790Z,1.77
2017-07-24T15:14:58.313Z,1.30
2017-07-24T15:17:25.819Z,1.23
2017-07-24T15:19:54.121Z,1.20
2017-07-24T15:22:21.645Z,1.10
2017-07-24T15:24:49.149Z,1.10
2017-07-24T15:27:16.650Z,0.93
2017-07-24T15:29:44.177Z,1.10
2017-07-24T15:32:11.945Z,1.00
2017-07-24T15:34:39.440Z,1.07
2017-07-24T15:37:06.961Z,1.17
2017-07-24T15:39:34.461Z,1.50
2017-07-24T15:42:02.072Z,1.50
2017-07-24T15:44:29.600Z,1.37
2017-07-24T15:46:57.861Z,1.43
2017-07-24T15:49:26.125Z,1.37
2017-07-24T15:51:53.658Z,1.40
2017-07-24T15:54:21.152Z,1.50
2017-07-24T15:56:49.428Z,1.70
2017-07-24T15:59:17.717Z,1.50
2017-07-24T16:01:45.992Z,1.30
2017-07-24T16:04:14.256Z,1.43
2017-07-24T16:06:42.550Z,1.60
2017-07-24T16:09:10.204Z,1.47
2017-07-24T16:11:38.465Z,1.33
2017-07-24T16:14:06.853Z,1.70
2017-07-24T16:16:35.121Z,2.10
2017-07-24T16:19:03.662Z,1.30
2017-07-24T16:21:31.213Z,1.50
2017-07-24T16:23:58.713Z,1.80
2017-07-24T16:26:26.981Z,1.30
2017-07-24T16:28:54.509Z,1.17
2017-07-24T16:31:22.005Z,1.30
2017-07-24T16:33:49.510Z,1.67
2017-07-24T16:36:17.044Z,1.47
2017-07-24T16:38:44.545Z,1.23
2017-07-24T16:41:12.044Z,1.33
2017-07-24T16:43:40.343Z,1.33
2017-07-24T16:46:07.846Z,1.30
2017-07-24T16:48:35.341Z,1.80
2017-07-24T16:51:03.634Z,1.67
2017-07-24T16:53:31.133Z,1.80
2017-07-24T16:55:58.629Z,2.00
2017-07-24T16:58:26.921Z,1.87
2017-07-24T17:00:54.425Z,1.87
2017-07-24T17:03:21.922Z,2.33
2017-07-24T17:05:50.217Z,2.13
2017-07-24T17:08:17.720Z,1.70
2017-07-24T17:10:45.197Z,2.10
2017-07-24T17:13:12.698Z,2.10
2017-07-24T17:15:40.165Z,2.17
2017-07-24T17:18:07.721Z,1.90
2017-07-24T17:20:35.229Z,1.90
2017-07-24T17:23:02.712Z,2.00
2017-07-24T17:25:30.950Z,2.10
2017-07-24T17:27:58.440Z,2.07
2017-07-24T17:30:26.957Z,2.00
2017-07-24T17:32:54.429Z,2.03
2017-07-24T17:35:21.918Z,3.00
2017-07-24T17:37:49.388Z,2.30
2017-07-24T17:40:17.653Z,4.00
2017-07-24T17:42:45.148Z,2.53
2017-07-24T17:45:12.633Z,2.07
2017-07-24T17:47:40.101Z,1.70
2017-07-24T17:50:07.596Z,2.07
2017-07-24T17:52:35.444Z,1.97
2017-07-24T17:55:02.945Z,1.57
2017-07-24T17:57:30.497Z,1.37
2017-07-24T17:59:57.972Z,1.37
2017-07-24T18:02:25.445Z,1.33
2017-07-24T18:04:52.937Z,1.33
2017-07-24T18:07:20.653Z,1.30
2017-07-24T18:09:48.919Z,1.70
2017-07-24T18:12:16.442Z,1.40
2017-07-24T18:14:44.689Z,1.77
2017-07-24T18:17:12.165Z,2.00
2017-07-24T18:19:39.656Z,1.70
2017-07-24T18:22:07.158Z,1.53
2017-07-24T18:24:34.634Z,1.53
2017-07-24T18:27:02.130Z,1.43
2017-07-24T18:29:29.601Z,1.60
2017-07-24T18:31:57.091Z,1.60
2017-07-24T18:34:24.825Z,1.53
2017-07-24T18:36:52.301Z,1.47
2017-07-24T18:39:19.773Z,1.70
2017-07-24T18:41:47.299Z,1.73
2017-07-24T18:44:14.766Z,2.13
2017-07-24T18:46:42.234Z,1.90
2017-07-24T18:49:10.330Z,1.53
2017-07-24T18:51:38.941Z,1.27
2017-07-24T18:54:06.411Z,1.70
2017-07-24T18:56:33.914Z,1.43
2017-07-24T18:59:01.645Z,1.33
2017-07-24T19:01:30.169Z,1.80
2017-07-24T19:03:58.015Z,1.40
2017-07-24T19:06:25.956Z,1.70
2017-07-24T19:08:53.965Z,1.77
2017-07-24T19:11:22.270Z,1.40
2017-07-24T19:13:49.773Z,1.80
2017-07-24T19:16:17.627Z,1.67
2017-07-24T19:18:46.069Z,1.77
2017-07-24T19:21:15.216Z,1.73
2017-07-24T19:23:43.282Z,1.50
2017-07-24T19:26:10.797Z,1.70
2017-07-24T19:28:39.039Z,1.50
2017-07-24T19:31:06.513Z,2.20
2017-07-24T19:33:34.009Z,1.67
2017-07-24T19:36:01.885Z,1.60
2017-07-24T19:38:29.675Z,1.50
2017-07-24T19:40:57.534Z,1.70
2017-07-24T19:43:25.381Z,1.30
2017-07-24T19:45:52.972Z,1.50
2017-07-24T19:48:20.461Z,2.27
2017-07-24T19:50:48.857Z,1.80
2017-07-24T19:53:16.949Z,1.20
2017-07-24T19:55:44.817Z,1.70
2017-07-24T19:58:12.321Z,1.53
2017-07-24T20:00:39.797Z,1.90
2017-07-24T20:03:08.053Z,1.97
2017-07-24T20:05:35.522Z,1.73
2017-07-24T20:08:03.780Z,1.97
2017-07-24T20:10:31.273Z,2.33
2017-07-24T20:12:58.757Z,2.03
2017-07-24T20:15:26.243Z,2.20
2017-07-24T20:17:53.737Z,1.97
2017-07-24T20:20:21.975Z,2.00
2017-07-24T20:22:49.449Z,1.73
2017-07-24T20:25:16.993Z,2.60
2017-07-24T20:27:44.467Z,2.23
2017-07-24T20:30:11.941Z,2.17
2017-07-24T20:32:40.198Z,1.60
2017-07-24T20:35:07.669Z,2.80
2017-07-24T20:37:35.905Z,2.03
2017-07-24T20:40:03.397Z,2.37
2017-07-24T20:42:31.641Z,2.27
2017-07-24T20:44:59.121Z,2.30
2017-07-24T20:47:27.381Z,2.20
2017-07-24T20:49:54.873Z,2.17
2017-07-24T20:52:23.110Z,2.47
2017-07-24T20:54:50.605Z,1.70
2017-07-24T20:57:19.064Z,2.57
2017-07-24T20:59:46.532Z,2.67
2017-07-24T21:02:14.797Z,2.07
2017-07-24T21:04:42.269Z,2.03
2017-07-24T21:07:10.501Z,2.20
2017-07-24T21:09:37.992Z,2.50
2017-07-24T21:12:06.233Z,2.13
2017-07-24T21:14:33.700Z,2.73
2017-07-24T21:17:01.189Z,2.70
2017-07-24T21:19:29.425Z,3.07
2017-07-24T21:21:56.892Z,3.10
2017-07-24T21:24:24.381Z,1.93
2017-07-24T21:26:52.618Z,2.70
2017-07-24T21:29:20.089Z,2.67
2017-07-24T21:31:47.581Z,2.47
2017-07-24T21:34:15.104Z,2.17
2017-07-24T21:36:42.576Z,2.27
2017-07-24T21:39:10.833Z,2.30
2017-07-24T21:41:38.301Z,2.47
2017-07-24T21:44:06.013Z,1.60
2017-07-24T21:46:34.337Z,2.30
2017-07-24T21:49:01.809Z,2.27
2017-07-24T21:51:30.053Z,2.50
2017-07-24T21:53:57.540Z,2.90
2017-07-24T21:56:26.065Z,2.80
2017-07-24T21:58:53.533Z,2.47
2017-07-24T22:01:21.026Z,3.63
2017-07-24T22:43:53.432Z,4.00
2017-07-24T22:46:20.908Z,3.30
2017-07-24T22:48:48.377Z,3.57
2017-07-24T22:51:16.634Z,4.30
2017-07-24T22:53:44.309Z,5.03
2017-07-24T22:56:11.873Z,5.30
2017-07-24T22:58:40.134Z,4.00
2017-07-24T23:01:07.610Z,4.17
2017-07-24T23:03:35.875Z,4.63
2017-07-24T23:06:03.364Z,6.00
2017-07-24T23:08:30.854Z,4.77
2017-07-24T23:10:58.325Z,4.53
2017-07-24T23:13:25.837Z,5.23
2017-07-24T23:15:53.309Z,4.90
2017-07-24T23:18:20.825Z,5.90
2017-07-24T23:20:49.081Z,5.93
2017-07-24T23:23:16.608Z,5.50
2017-07-24T23:25:44.083Z,6.70
2017-07-24T23:28:11.573Z,6.70
2017-07-24T23:30:40.028Z,4.97
2017-07-24T23:33:07.504Z,5.17
2017-07-24T23:35:34.993Z,5.80
2017-07-24T23:38:02.461Z,4.80
2017-07-24T23:40:29.929Z,5.50
2017-07-24T23:42:57.417Z,4.47
2017-07-24T23:45:24.893Z,5.30
2017-07-24T23:47:53.129Z,5.33
2017-07-24T23:50:20.622Z,5.30
2017-07-24T23:52:48.088Z,5.43
2017-07-24T23:55:16.328Z,5.93
2017-07-24T23:57:43.818Z,4.60
